Time;durP1;ratioP1;P1;durP2;ratioP2;P2;SDS_P1;SDS_P2;PMS_P1;PMS_P2;Temp;Humidity;BMP_temperature;BMP_pressure;BME280_temperature;BME280_humidity;BME280_pressure;Samples;Min_cycle;Max_cycle;Signal;HPM_P1;HPM_P2
2023/10/24 00:00:36;;;;;;;5.90;3.17;;;384.10;2329.60;;;;;;5051819;28;20029;-59
2023/10/24 00:03:02;;;;;;;6.85;3.13;;;384.10;2329.60;;;;;;5034335;28;20061;-59
2023/10/24 00:05:28;;;;;;;8.27;3.80;;;384.20;2329.60;;;;;;5041525;28;20023;-57
2023/10/24 00:07:54;;;;;;;7.03;3.97;;;384.20;2329.60;;;;;;5051366;28;20033;-58
2023/10/24 00:10:20;;;;;;;9.15;3.70;;;384.20;2329.60;;;;;;5038404;28;20021;-58
2023/10/24 00:12:46;;;;;;;8.40;2.97;;;384.10;2329.60;;;;;;5051416;28;20047;-58
2023/10/24 00:15:12;;;;;;;4.25;3.03;;;384.00;2329.60;;;;;;5046757;28;20059;-57
2023/10/24 00:17:38;;;;;;;8.30;3.10;;;384.00;2329.60;;;;;;5043639;28;20068;-58
2023/10/24 00:20:04;;;;;;;11.70;3.85;;;384.20;2329.60;;;;;;5050819;28;20129;-58
2023/10/24 00:22:30;;;;;;;8.32;2.90;;;384.00;2329.60;;;;;;5051319;28;20029;-58
2023/10/24 00:24:56;;;;;;;6.30;3.10;;;384.20;2329.60;;;;;;5050836;28;20048;-59
2023/10/24 00:27:21;;;;;;;7.22;3.53;;;384.30;2329.60;;;;;;5051522;28;20123;-57
2023/10/24 00:29:47;;;;;;;6.25;3.95;;;384.30;2329.60;;;;;;5050881;28;20055;-60
2023/10/24 00:32:13;;;;;;;7.38;4.50;;;384.40;2329.60;;;;;;5044706;28;20029;-59
2023/10/24 00:34:38;;;;;;;5.00;3.33;;;384.40;2329.60;;;;;;5037396;28;20025;-61
2023/10/24 00:37:04;;;;;;;9.70;3.45;;;384.50;2329.60;;;;;;5051145;28;20471;-60
2023/10/24 00:39:30;;;;;;;5.85;3.42;;;384.50;2329.60;;;;;;5051603;28;20045;-56
2023/10/24 00:41:56;;;;;;;9.90;3.25;;;384.40;2329.60;;;;;;5050216;28;20403;-58
2023/10/24 00:44:21;;;;;;;6.32;3.72;;;384.40;2329.60;;;;;;5050437;28;20117;-58
2023/10/24 00:46:48;;;;;;;10.90;4.38;;;384.30;2329.60;;;;;;5050730;28;20032;-59
2023/10/24 00:49:14;;;;;;;5.10;3.47;;;384.10;2329.60;;;;;;5050235;28;20099;-57
2023/10/24 00:51:41;;;;;;;11.68;3.85;;;359.30;2329.60;;;;;;5050641;28;20486;-57
2023/10/24 00:54:09;;;;;;;9.88;3.25;;;384.00;2329.60;;;;;;5049490;28;20032;-59
2023/10/24 00:56:35;;;;;;;6.13;4.05;;;384.10;2329.60;;;;;;5050489;28;21027;-58
2023/10/24 00:59:02;;;;;;;5.60;3.00;;;384.10;2329.60;;;;;;5039583;28;20030;-60
2023/10/24 01:01:29;;;;;;;6.05;3.20;;;384.10;2329.60;;;;;;5046526;28;20037;-59
2023/10/24 01:03:56;;;;;;;11.18;4.20;;;384.00;2329.60;;;;;;5050629;28;20123;-60
2023/10/24 01:06:22;;;;;;;5.82;3.50;;;384.00;2329.60;;;;;;5023455;28;20035;-60
2023/10/24 01:08:48;;;;;;;8.20;4.43;;;384.00;2329.60;;;;;;5040980;28;20366;-57
2023/10/24 01:11:14;;;;;;;7.32;3.88;;;384.00;2329.60;;;;;;5037026;28;20070;-58
2023/10/24 01:13:40;;;;;;;9.23;4.10;;;384.00;2329.60;;;;;;5050701;28;20027;-59
2023/10/24 01:16:06;;;;;;;7.22;3.40;;;384.00;2329.60;;;;;;5049771;28;20337;-58
2023/10/24 01:18:32;;;;;;;5.88;3.20;;;384.00;2329.60;;;;;;5050353;28;20029;-58
2023/10/24 01:20:58;;;;;;;5.93;3.58;;;384.00;2329.60;;;;;;5049784;28;20028;-58
2023/10/24 01:23:26;;;;;;;9.50;3.75;;;384.10;2329.60;;;;;;5050033;28;20028;-57
2023/10/24 01:25:52;;;;;;;5.78;2.85;;;359.30;2329.60;;;;;;5050032;28;20028;-58
2023/10/24 01:28:18;;;;;;;7.90;3.65;;;359.20;2329.60;;;;;;5050599;28;20029;-57
2023/10/24 01:30:44;;;;;;;7.00;4.00;;;359.30;2329.60;;;;;;5049887;28;20025;-59
2023/10/24 01:33:10;;;;;;;9.68;3.67;;;359.30;2329.60;;;;;;5050065;28;20025;-58
2023/10/24 01:35:35;;;;;;;9.88;4.15;;;359.30;2329.60;;;;;;5049580;28;20024;-59
2023/10/24 01:38:01;;;;;;;6.03;3.78;;;359.30;2329.60;;;;;;5045627;28;20032;-57
2023/10/24 01:40:27;;;;;;;8.50;3.97;;;359.30;2329.60;;;;;;5036906;28;20030;-58
2023/10/24 01:42:52;;;;;;;7.28;3.28;;;359.30;2329.60;;;;;;5048500;28;20066;-59
2023/10/24 01:45:20;;;;;;;6.68;3.88;;;359.30;2329.60;;;;;;5049847;28;20048;-57
2023/10/24 01:47:45;;;;;;;11.23;3.80;;;359.30;2329.60;;;;;;5049246;28;20037;-58
2023/10/24 01:50:12;;;;;;;6.75;4.00;;;359.30;2329.60;;;;;;5050647;28;20075;-59
2023/10/24 01:52:37;;;;;;;6.07;3.85;;;359.30;2329.60;;;;;;5043791;28;20026;-58
2023/10/24 01:55:03;;;;;;;12.40;4.10;;;359.30;2329.60;;;;;;5042855;28;20416;-58
2023/10/24 01:57:29;;;;;;;8.00;3.40;;;359.30;2329.60;;;;;;5049764;28;20029;-58
2023/10/24 01:59:55;;;;;;;7.18;3.80;;;359.30;2329.60;;;;;;5049589;28;20029;-58
2023/10/24 02:02:20;;;;;;;6.88;4.03;;;359.20;2329.60;;;;;;5049416;28;20124;-60
2023/10/24 02:04:46;;;;;;;8.07;3.85;;;359.20;2329.60;;;;;;5050597;28;20070;-61
2023/10/24 02:07:12;;;;;;;6.60;3.55;;;359.30;2329.60;;;;;;5050346;28;20429;-62
2023/10/24 02:09:38;;;;;;;5.78;3.75;;;359.10;2329.60;;;;;;5050454;28;20021;-59
2023/10/24 02:12:04;;;;;;;7.18;4.30;;;359.10;2329.60;;;;;;5043011;28;20053;-61
2023/10/24 02:14:30;;;;;;;7.32;4.20;;;359.00;2329.60;;;;;;5030841;28;20585;-58
2023/10/24 02:16:56;;;;;;;7.00;3.75;;;358.90;2329.60;;;;;;5050290;28;20471;-60
2023/10/24 02:19:22;;;;;;;5.90;4.18;;;359.00;2329.60;;;;;;5037744;28;20057;-57
2023/10/24 02:21:49;;;;;;;8.00;4.00;;;359.00;2329.60;;;;;;5047968;28;20032;-58
2023/10/24 02:24:14;;;;;;;6.55;3.78;;;359.10;2329.60;;;;;;5037277;28;20026;-61
2023/10/24 02:26:55;;;;;;;8.98;3.78;;;359.10;2329.60;;;;;;5035155;28;20049;-59
2023/10/24 02:29:21;;;;;;;5.40;3.60;;;359.00;2329.60;;;;;;5046721;28;20033;-58
2023/10/24 02:31:47;;;;;;;6.10;4.07;;;359.00;2329.60;;;;;;5046802;28;20033;-59
2023/10/24 02:34:12;;;;;;;6.10;3.42;;;358.90;2329.60;;;;;;5046862;28;20033;-59
2023/10/24 02:36:38;;;;;;;9.38;3.83;;;358.80;2329.60;;;;;;5038948;28;20033;-59
2023/10/24 02:39:04;;;;;;;7.65;3.67;;;358.70;2329.60;;;;;;5040721;28;20488;-57
2023/10/24 02:41:30;;;;;;;8.70;3.70;;;358.60;2329.60;;;;;;5046557;28;20111;-58
2023/10/24 02:43:55;;;;;;;6.43;3.47;;;358.60;2329.60;;;;;;5046292;28;20037;-57
2023/10/24 02:46:21;;;;;;;5.82;3.80;;;358.60;2329.60;;;;;;5046881;28;20105;-57
2023/10/24 02:48:47;;;;;;;5.45;3.22;;;358.60;2329.60;;;;;;5046231;28;20506;-58
2023/10/24 02:51:13;;;;;;;5.75;3.17;;;358.70;2329.60;;;;;;5036454;28;20112;-58
2023/10/24 02:53:39;;;;;;;8.23;3.25;;;358.80;2329.60;;;;;;5026296;28;20033;-58
2023/10/24 02:56:04;;;;;;;6.32;3.20;;;358.80;2329.60;;;;;;5046644;28;20029;-57
2023/10/24 02:58:31;;;;;;;7.82;3.03;;;358.90;2329.60;;;;;;5046471;28;20033;-58
2023/10/24 03:01:03;;;;;;;6.80;3.10;;;358.90;2329.60;;;;;;5046066;28;20039;-58
2023/10/24 03:03:29;;;;;;;7.40;3.42;;;358.90;2329.60;;;;;;5034135;28;20050;-59
2023/10/24 03:05:55;;;;;;;7.68;4.35;;;358.90;2329.60;;;;;;5050287;28;20036;-58
2023/10/24 03:08:21;;;;;;;10.43;5.15;;;358.90;2329.60;;;;;;5052961;28;20029;-58
2023/10/24 03:10:46;;;;;;;6.50;2.97;;;358.60;2329.60;;;;;;5052780;28;20032;-58
2023/10/24 03:13:12;;;;;;;7.50;3.45;;;358.60;2329.60;;;;;;5052805;28;20033;-60
2023/10/24 03:15:39;;;;;;;7.00;3.70;;;358.70;2329.60;;;;;;5053534;28;20036;-58
2023/10/24 03:18:05;;;;;;;13.50;3.28;;;358.80;2329.60;;;;;;5052661;28;20025;-57
2023/10/24 03:20:31;;;;;;;9.35;3.72;;;358.90;2329.60;;;;;;5051830;28;20533;-60
2023/10/24 03:22:57;;;;;;;5.22;3.53;;;358.90;2329.60;;;;;;5044541;28;20387;-58
2023/10/24 03:25:26;;;;;;;5.72;3.63;;;358.70;2329.60;;;;;;5025556;28;20022;-58
2023/10/24 03:27:55;;;;;;;6.13;3.88;;;358.70;2329.60;;;;;;5047389;28;20034;-57
2023/10/24 03:30:21;;;;;;;9.82;3.38;;;358.70;2329.60;;;;;;5051843;28;20129;-59
2023/10/24 03:32:47;;;;;;;8.70;3.47;;;358.70;2329.60;;;;;;5050858;28;20124;-59
2023/10/24 03:35:14;;;;;;;13.82;4.13;;;358.70;2329.60;;;;;;5052079;28;20108;-57
2023/10/24 03:37:41;;;;;;;6.38;3.55;;;358.70;2329.60;;;;;;5051497;28;20025;-57
2023/10/24 03:40:08;;;;;;;6.80;3.40;;;358.70;2329.60;;;;;;5050559;28;20040;-59
2023/10/24 03:42:34;;;;;;;7.22;3.33;;;358.70;2329.60;;;;;;5035372;28;20026;-59
2023/10/24 03:45:00;;;;;;;11.27;3.60;;;358.70;2329.60;;;;;;5042818;28;20028;-57
2023/10/24 03:47:25;;;;;;;8.68;3.83;;;358.70;2329.60;;;;;;5051412;28;20119;-59
2023/10/24 03:49:51;;;;;;;7.82;4.40;;;358.70;2329.60;;;;;;5052771;28;20027;-59
2023/10/24 03:52:17;;;;;;;5.93;3.50;;;358.70;2329.60;;;;;;5051638;28;20024;-59
2023/10/24 03:54:43;;;;;;;11.35;3.65;;;358.70;2329.60;;;;;;5052266;28;20027;-58
2023/10/24 03:57:09;;;;;;;5.25;3.65;;;358.70;2329.60;;;;;;5036658;28;20029;-59
2023/10/24 03:59:35;;;;;;;6.50;3.28;;;358.60;2329.60;;;;;;5041553;28;20104;-58
2023/10/24 04:02:00;;;;;;;10.40;3.13;;;358.60;2329.60;;;;;;5051992;28;20416;-58
2023/10/24 04:04:26;;;;;;;10.82;3.72;;;358.60;2329.60;;;;;;5051882;28;20090;-60
2023/10/24 04:06:52;;;;;;;9.98;3.88;;;358.50;2329.60;;;;;;5052083;28;20059;-58
2023/10/24 04:09:17;;;;;;;6.82;3.10;;;358.60;2329.60;;;;;;5051758;28;20555;-58
2023/10/24 04:11:43;;;;;;;6.22;3.00;;;358.60;2329.60;;;;;;5051222;28;20013;-57
2023/10/24 04:14:09;;;;;;;10.57;4.07;;;358.70;2329.60;;;;;;5043649;28;20036;-58
2023/10/24 04:16:35;;;;;;;9.77;4.10;;;358.70;2329.60;;;;;;5051210;28;20025;-58
2023/10/24 04:19:01;;;;;;;7.85;4.68;;;358.60;2329.60;;;;;;5050393;28;20052;-58
2023/10/24 04:21:26;;;;;;;7.53;3.92;;;358.60;2329.60;;;;;;5051408;28;20033;-57
2023/10/24 04:23:52;;;;;;;8.73;4.72;;;358.60;2329.60;;;;;;5051531;28;20527;-58
2023/10/24 04:26:18;;;;;;;11.68;4.88;;;358.60;2329.60;;;;;;5047449;28;20036;-58
2023/10/24 04:28:44;;;;;;;13.02;4.22;;;358.60;2329.60;;;;;;5025120;28;20049;-59
2023/10/24 04:31:10;;;;;;;8.40;3.20;;;358.60;2329.60;;;;;;5045593;28;20360;-58
2023/10/24 04:33:36;;;;;;;7.30;3.75;;;358.60;2329.60;;;;;;5030939;28;20029;-57
2023/10/24 04:36:01;;;;;;;5.93;3.40;;;358.60;2329.60;;;;;;5030841;28;20108;-58
2023/10/24 04:38:27;;;;;;;7.53;3.50;;;358.60;2329.60;;;;;;5044109;28;20044;-59
2023/10/24 04:40:53;;;;;;;10.93;3.38;;;358.60;2329.60;;;;;;5051178;28;20028;-57
2023/10/24 04:43:19;;;;;;;13.35;3.35;;;358.60;2329.60;;;;;;5051294;28;20087;-58
2023/10/24 04:45:45;;;;;;;11.38;3.53;;;358.60;2329.60;;;;;;5050851;28;20024;-59
2023/10/24 04:48:10;;;;;;;6.40;3.25;;;358.60;2329.60;;;;;;5051308;28;20029;-58
2023/10/24 04:50:41;;;;;;;8.13;4.10;;;358.60;2329.60;;;;;;5051012;28;20459;-57
2023/10/24 04:53:07;;;;;;;6.30;3.80;;;358.60;2329.60;;;;;;5051028;28;20089;-58
2023/10/24 04:55:33;;;;;;;10.48;4.13;;;358.60;2329.60;;;;;;5050856;28;20489;-57
2023/10/24 04:57:59;;;;;;;11.52;3.88;;;358.60;2329.60;;;;;;5051191;28;20541;-58
2023/10/24 05:00:26;;;;;;;7.70;4.32;;;358.60;2329.60;;;;;;5029942;28;20116;-58
2023/10/24 05:02:52;;;;;;;16.75;4.20;;;358.60;2329.60;;;;;;5041484;28;20045;-58
2023/10/24 05:05:18;;;;;;;13.00;3.97;;;358.70;2329.60;;;;;;5049213;28;20024;-57
2023/10/24 05:07:44;;;;;;;6.72;4.13;;;358.60;2329.60;;;;;;5028322;28;20029;-59
2023/10/24 05:10:10;;;;;;;6.47;3.80;;;358.60;2329.60;;;;;;5050463;28;20028;-59
2023/10/24 05:12:36;;;;;;;26.48;7.30;;;358.50;2329.60;;;;;;5050179;28;20479;-58
2023/10/24 05:15:02;;;;;;;20.77;5.38;;;358.40;2329.60;;;;;;5050544;28;20031;-58
2023/10/24 05:17:30;;;;;;;11.02;5.03;;;358.40;2329.60;;;;;;5049992;28;20075;-58
2023/10/24 05:19:59;;;;;;;14.65;5.10;;;358.50;2329.60;;;;;;5050445;28;20045;-58
2023/10/24 05:22:25;;;;;;;9.90;3.78;;;358.50;2329.60;;;;;;5050094;28;20037;-59
2023/10/24 05:24:51;;;;;;;12.50;3.60;;;358.50;2329.60;;;;;;5049917;28;20029;-59
2023/10/24 05:27:17;;;;;;;10.70;3.60;;;358.70;2329.60;;;;;;5049565;28;20075;-59
2023/10/24 05:29:43;;;;;;;11.70;3.13;;;358.70;2329.60;;;;;;5049360;28;20029;-58
2023/10/24 05:32:09;;;;;;;12.40;3.78;;;358.80;2329.60;;;;;;5048173;28;20387;-59
2023/10/24 05:34:34;;;;;;;10.70;3.63;;;359.00;2329.60;;;;;;5049082;28;20025;-58
2023/10/24 05:37:00;;;;;;;13.90;4.03;;;359.10;2329.60;;;;;;5029519;28;20029;-59
2023/10/24 05:39:30;;;;;;;10.10;3.75;;;359.20;2329.60;;;;;;5049854;28;20017;-58
2023/10/24 05:41:56;;;;;;;13.15;4.18;;;384.00;2329.60;;;;;;5050086;28;20090;-57
2023/10/24 05:44:22;;;;;;;16.35;4.45;;;384.00;2329.60;;;;;;5049214;28;20021;-58
2023/10/24 05:46:49;;;;;;;8.65;3.92;;;384.20;2329.60;;;;;;5049713;28;20100;-57
2023/10/24 05:49:15;;;;;;;8.98;4.30;;;384.20;2329.60;;;;;;5049489;28;20473;-58
2023/10/24 05:51:40;;;;;;;8.60;4.80;;;384.30;2329.60;;;;;;5050091;28;20096;-58
2023/10/24 05:54:06;;;;;;;10.65;4.82;;;384.50;2329.60;;;;;;5049731;28;20024;-59
2023/10/24 05:56:32;;;;;;;10.77;5.20;;;384.60;2329.60;;;;;;5038974;28;20044;-59
2023/10/24 05:58:58;;;;;;;7.03;4.57;;;384.60;2329.60;;;;;;5036233;28;20036;-57
2023/10/24 06:01:24;;;;;;;13.85;7.90;;;384.60;2329.60;;;;;;5043528;28;20021;-59
2023/10/24 06:03:50;;;;;;;10.27;5.75;;;384.40;2329.60;;;;;;5038186;28;20040;-59
2023/10/24 06:06:16;;;;;;;26.05;12.77;;;384.30;2329.60;;;;;;5032109;28;20017;-58
2023/10/24 06:08:44;;;;;;;20.00;10.10;;;384.30;2329.60;;;;;;5039704;28;20052;-68
2023/10/24 06:11:11;;;;;;;8.98;8.07;;;384.30;2329.60;;;;;;5032520;28;20080;-67
2023/10/24 06:13:37;;;;;;;12.05;7.35;;;384.70;2329.60;;;;;;5026455;28;20067;-68
2023/10/24 06:16:07;;;;;;;15.63;8.73;;;384.80;2329.60;;;;;;5035895;28;20044;-67
2023/10/24 06:18:33;;;;;;;11.55;7.53;;;409.60;2355.20;;;;;;5038775;28;20032;-67
2023/10/24 06:20:59;;;;;;;14.30;7.30;;;409.90;2355.20;;;;;;5046031;28;20056;-66
2023/10/24 06:23:24;;;;;;;13.80;7.10;;;410.10;2355.20;;;;;;5042862;28;20120;-67
2023/10/24 06:25:50;;;;;;;13.10;6.10;;;410.20;2355.20;;;;;;5047666;28;20479;-67
2023/10/24 06:28:16;;;;;;;9.82;4.13;;;410.20;2355.20;;;;;;5047324;28;20099;-66
2023/10/24 06:30:41;;;;;;;11.18;4.38;;;410.50;2355.20;;;;;;5047581;28;20029;-69
2023/10/24 06:33:07;;;;;;;8.75;4.38;;;435.30;2355.20;;;;;;5047408;28;20021;-68
2023/10/24 06:35:33;;;;;;;15.32;7.55;;;435.50;2355.20;;;;;;5047529;28;20104;-67
2023/10/24 06:37:58;;;;;;;10.60;6.57;;;435.60;2355.20;;;;;;5047583;28;20067;-68
2023/10/24 06:40:24;;;;;;;7.45;4.47;;;435.80;2355.20;;;;;;5046082;28;20479;-68
2023/10/24 06:42:51;;;;;;;8.57;4.93;;;435.70;2355.20;;;;;;5044939;28;20033;-69
2023/10/24 06:45:17;;;;;;;8.90;4.47;;;435.90;2355.20;;;;;;5029297;28;20353;-67
2023/10/24 06:47:42;;;;;;;6.25;3.78;;;460.80;2380.80;;;;;;5041100;28;20099;-67
2023/10/24 06:50:08;;;;;;;9.57;3.53;;;461.10;2380.80;;;;;;5043986;28;20033;-68
2023/10/24 06:52:34;;;;;;;7.65;4.70;;;461.40;2380.80;;;;;;5041477;28;20103;-69
2023/10/24 06:55:00;;;;;;;15.75;7.82;;;461.60;2380.80;;;;;;5044188;28;20032;-70
2023/10/24 06:57:26;;;;;;;15.40;9.55;;;461.50;2380.80;;;;;;5041534;28;20038;-69
2023/10/24 06:59:52;;;;;;;13.50;8.00;;;461.30;2380.80;;;;;;5043447;28;20599;-69
2023/10/24 07:02:18;;;;;;;17.30;9.98;;;435.90;2355.20;;;;;;5041602;28;20133;-69
2023/10/24 07:04:44;;;;;;;15.27;7.88;;;460.80;2380.80;;;;;;5044858;28;20136;-70
2023/10/24 07:07:09;;;;;;;15.45;8.68;;;460.90;2380.80;;;;;;5042724;28;20032;-77
2023/10/24 07:09:35;;;;;;;15.43;9.57;;;460.80;2380.80;;;;;;5045875;28;20448;-72
2023/10/24 07:12:01;;;;;;;14.05;7.75;;;460.80;2380.80;;;;;;5047083;28;20021;-69
2023/10/24 07:14:27;;;;;;;10.15;6.95;;;461.20;2380.80;;;;;;5046764;28;20100;-71
2023/10/24 07:16:52;;;;;;;20.05;6.65;;;461.60;2380.80;;;;;;5028655;28;20034;-69
2023/10/24 07:19:19;;;;;;;8.75;4.85;;;486.70;2380.80;;;;;;5039262;28;20072;-70
2023/10/24 07:21:45;;;;;;;10.13;4.93;;;487.20;2380.80;;;;;;5046359;28;20124;-70
2023/10/24 07:24:11;;;;;;;11.52;4.75;;;512.50;2380.80;;;;;;5043931;28;20108;-69
2023/10/24 07:26:37;;;;;;;10.07;4.75;;;537.70;2406.40;;;;;;5035384;28;20025;-68
2023/10/24 07:29:02;;;;;;;10.40;5.18;;;538.20;2406.40;;;;;;5038133;28;20518;-69
2023/10/24 07:31:28;;;;;;;11.10;5.50;;;563.30;2432.00;;;;;;5029348;28;20795;-70
2023/10/24 07:33:54;;;;;;;11.95;4.90;;;563.70;2432.00;;;;;;5036360;28;20063;-70
2023/10/24 07:36:19;;;;;;;11.45;5.10;;;564.10;2355.20;;;;;;5034222;28;20033;-67
2023/10/24 07:38:45;;;;;;;13.27;7.63;;;589.30;2304.00;;;;;;5046968;28;20036;-68
2023/10/24 07:41:11;;;;;;;11.13;6.90;;;589.50;2278.40;;;;;;5042200;28;20024;-69
2023/10/24 07:43:37;;;;;;;12.10;6.57;;;614.60;2227.20;;;;;;5027809;28;20022;-69
2023/10/24 07:46:03;;;;;;;11.02;5.07;;;614.60;2201.60;;;;;;5041348;28;20121;-68
2023/10/24 07:48:29;;;;;;;12.13;4.93;;;614.90;2124.80;;;;;;5028860;28;20022;-70
2023/10/24 07:50:57;;;;;;;15.65;4.55;;;640.10;2073.60;;;;;;5028995;28;20021;-70
2023/10/24 07:53:24;;;;;;;14.32;5.15;;;640.50;2022.40;;;;;;5050182;28;20029;-69
2023/10/24 07:55:50;;;;;;;11.60;4.97;;;665.60;1996.80;;;;;;5045933;28;20029;-70
2023/10/24 07:58:17;;;;;;;18.65;10.07;;;666.40;1920.00;;;;;;5033710;28;20029;-68
2023/10/24 08:00:43;;;;;;;10.63;7.75;;;691.30;1945.60;;;;;;5035775;28;20037;-70
2023/10/24 08:03:12;;;;;;;42.70;32.22;;;691.90;1920.00;;;;;;5034384;28;20037;-68
2023/10/24 08:05:37;;;;;;;28.67;21.23;;;717.30;1868.80;;;;;;5045885;28;20037;-68
2023/10/24 08:08:04;;;;;;;15.90;8.65;;;717.60;1817.60;;;;;;5042042;28;20486;-70
2023/10/24 08:10:31;;;;;;;14.25;6.95;;;717.60;1817.60;;;;;;5037501;28;20130;-68
2023/10/24 08:12:58;;;;;;;8.55;6.07;;;742.50;1792.00;;;;;;5039687;28;20699;-68
2023/10/24 08:15:24;;;;;;;11.35;8.30;;;717.70;1766.40;;;;;;5037040;28;20106;-68
2023/10/24 08:17:49;;;;;;;15.43;7.57;;;742.90;1740.80;;;;;;5041114;28;20109;-69
2023/10/24 08:20:15;;;;;;;13.70;8.27;;;768.60;1689.60;;;;;;5026008;28;20072;-69
2023/10/24 08:22:41;;;;;;;15.82;9.13;;;793.70;1638.40;;;;;;5041349;28;20032;-69
2023/10/24 08:25:07;;;;;;;13.27;8.05;;;793.80;1638.40;;;;;;5043081;28;20053;-68
2023/10/24 08:27:32;;;;;;;18.83;9.25;;;794.20;1587.20;;;;;;5047031;28;20552;-69
2023/10/24 08:29:59;;;;;;;18.25;8.20;;;794.20;1612.80;;;;;;5044101;28;20059;-70
2023/10/24 08:32:25;;;;;;;15.23;7.97;;;819.30;1561.60;;;;;;5037217;28;20036;-69
2023/10/24 08:34:50;;;;;;;13.70;9.05;;;819.50;1536.00;;;;;;5031773;28;20029;-71
2023/10/24 08:37:16;;;;;;;15.80;7.07;;;794.30;1561.60;;;;;;5030236;28;20079;-68
2023/10/24 08:39:42;;;;;;;15.60;8.40;;;794.30;1561.60;;;;;;5036798;28;20036;-70
2023/10/24 08:42:10;;;;;;;13.48;8.32;;;768.90;1587.20;;;;;;5036543;28;20475;-69
2023/10/24 08:44:38;;;;;;;14.13;7.57;;;743.20;1638.40;;;;;;5029348;28;20415;-68
2023/10/24 08:47:08;;;;;;;15.27;7.50;;;768.40;1587.20;;;;;;5030003;28;20053;-68
2023/10/24 08:49:36;;;;;;;14.68;8.15;;;768.10;1612.80;;;;;;5030037;28;20468;-68
2023/10/24 08:52:03;;;;;;;20.75;8.20;;;742.90;1638.40;;;;;;5030773;28;20101;-67
2023/10/24 08:54:29;;;;;;;13.93;7.88;;;742.40;1689.60;;;;;;5029527;28;20525;-69
2023/10/24 08:56:57;;;;;;;16.70;8.63;;;717.20;1689.60;;;;;;5027322;28;20446;-68
2023/10/24 08:59:28;;;;;;;15.88;7.57;;;717.60;1664.00;;;;;;5019503;28;20083;-69
2023/10/24 09:01:54;;;;;;;19.42;8.13;;;742.80;1664.00;;;;;;5029014;28;20421;-69
2023/10/24 09:04:20;;;;;;;20.48;8.43;;;742.70;1664.00;;;;;;5027176;28;20167;-69
2023/10/24 09:06:46;;;;;;;14.70;7.75;;;717.40;1664.00;;;;;;5030196;28;20379;-67
2023/10/24 09:09:14;;;;;;;12.13;7.65;;;691.30;1740.80;;;;;;5030071;28;20030;-69
2023/10/24 09:11:53;;;;;;;18.55;8.95;;;665.70;1843.20;;;;;;5035161;28;20170;-69
2023/10/24 09:14:20;;;;;;;16.20;8.27;;;665.60;1868.80;;;;;;5034621;28;20153;-69
2023/10/24 09:16:53;;;;;;;22.10;9.10;;;665.60;1868.80;;;;;;5029250;28;20032;-65
2023/10/24 09:19:18;;;;;;;;;;;640.90;1868.80;;;;;;5030395;28;20051;-66
2023/10/24 09:21:44;;;;;;;18.98;8.13;;;666.30;1843.20;;;;;;5044378;28;20334;-69
2023/10/24 09:24:13;;;;;;;20.15;6.75;;;666.30;1843.20;;;;;;5044848;28;20041;-71
2023/10/24 09:26:39;;;;;;;19.67;9.07;;;666.20;1868.80;;;;;;5036599;28;20033;-69
2023/10/24 09:29:08;;;;;;;19.70;7.10;;;665.90;1868.80;;;;;;5012334;28;20038;-68
2023/10/24 09:31:34;;;;;;;20.60;8.88;;;665.60;1894.40;;;;;;5016237;28;20033;-69
2023/10/24 09:34:00;;;;;;;18.65;8.50;;;666.00;1868.80;;;;;;5042495;28;20111;-67
2023/10/24 09:36:26;;;;;;;20.67;8.52;;;665.70;1894.40;;;;;;5039992;28;20143;-69
2023/10/24 09:38:55;;;;;;;22.92;11.73;;;665.70;1894.40;;;;;;5032039;28;20029;-68
2023/10/24 09:41:21;;;;;;;31.63;10.75;;;640.60;1894.40;;;;;;5047472;28;20595;-68
2023/10/24 09:43:48;;;;;;;28.38;10.98;;;640.20;1920.00;;;;;;5047700;28;20053;-68
2023/10/24 09:46:22;;;;;;;21.60;11.50;;;640.10;1945.60;;;;;;5047945;28;20497;-68
2023/10/24 09:48:50;;;;;;;29.08;12.75;;;640.10;1971.20;;;;;;5047059;28;20037;-69
2023/10/24 09:51:21;;;;;;;34.53;11.48;;;640.10;1971.20;;;;;;5047809;28;20017;-68
2023/10/24 09:53:47;;;;;;;25.83;10.93;;;615.20;2022.40;;;;;;5047685;28;20471;-68
2023/10/24 09:56:13;;;;;;;25.90;10.30;;;615.00;2048.00;;;;;;5047218;28;20029;-68
2023/10/24 09:58:41;;;;;;;24.98;9.13;;;615.20;2022.40;;;;;;5043671;28;20034;-69
2023/10/24 10:01:08;;;;;;;19.92;10.00;;;615.10;2048.00;;;;;;5025295;28;20037;-68
2023/10/24 10:03:35;;;;;;;20.70;8.85;;;615.20;2022.40;;;;;;5040800;28;20487;-69
2023/10/24 10:06:13;;;;;;;23.30;9.45;;;615.20;2048.00;;;;;;5046344;28;20031;-68
2023/10/24 10:08:41;;;;;;;21.75;8.73;;;640.00;2048.00;;;;;;5047597;28;20021;-67
2023/10/24 10:11:07;;;;;;;22.95;10.52;;;640.00;2048.00;;;;;;5046795;28;20048;-70
2023/10/24 10:13:38;;;;;;;27.25;9.63;;;615.30;2048.00;;;;;;5045280;28;20028;-69
2023/10/24 10:16:15;;;;;;;21.15;9.18;;;615.30;2073.60;;;;;;5039168;28;20049;-68
2023/10/24 10:19:00;;;;;;;19.48;8.93;;;640.10;2048.00;;;;;;5048955;28;20128;-69
2023/10/24 10:21:31;;;;;;;21.13;9.23;;;615.30;2048.00;;;;;;5048081;28;20029;-69
2023/10/24 10:24:18;;;;;;;21.00;8.65;;;640.10;2048.00;;;;;;5048917;28;20033;-70
2023/10/24 10:27:08;;;;;;;20.15;9.35;;;640.00;2048.00;;;;;;5048736;28;20025;-70
2023/10/24 10:29:48;;;;;;;23.55;10.52;;;640.10;2048.00;;;;;;5048587;28;20082;-69
2023/10/24 10:32:37;;;;;;;29.92;9.80;;;640.20;2048.00;;;;;;5043931;28;20107;-69
2023/10/24 10:35:04;;;;;;;24.45;12.48;;;640.20;2022.40;;;;;;5035114;28;20048;-68
2023/10/24 10:37:35;;;;;;;23.48;10.50;;;640.20;2022.40;;;;;;5042530;28;20029;-70
2023/10/24 10:40:23;;;;;;;31.65;10.68;;;640.40;1996.80;;;;;;5048717;28;20095;-69
2023/10/24 10:42:51;;;;;;;19.90;9.20;;;640.50;1971.20;;;;;;5040984;28;20033;-69
2023/10/24 10:45:25;;;;;;;23.25;9.35;;;640.70;1945.60;;;;;;5029674;28;20056;-67
2023/10/24 10:47:52;;;;;;;26.52;8.50;;;640.90;1920.00;;;;;;5048117;28;20024;-72
2023/10/24 10:50:44;;;;;;;24.92;8.20;;;665.70;1920.00;;;;;;5048471;28;20021;-70
2023/10/24 10:53:42;;;;;;;25.38;8.15;;;666.00;1894.40;;;;;;5027021;28;20040;-69
2023/10/24 10:56:24;;;;;;;25.75;8.73;;;666.20;1920.00;;;;;;5022570;28;20394;-69
2023/10/24 10:58:59;;;;;;;20.60;8.13;;;666.30;1894.40;;;;;;5046880;28;20087;-68
2023/10/24 11:01:38;;;;;;;20.15;7.45;;;666.30;1843.20;;;;;;5046574;28;20017;-70
2023/10/24 11:04:15;;;;;;;21.85;7.72;;;666.30;1843.20;;;;;;5046486;28;20430;-68
2023/10/24 11:07:10;;;;;;;23.92;7.35;;;666.30;1817.60;;;;;;5045579;28;20028;-67
2023/10/24 11:09:37;;;;;;;21.08;6.82;;;666.50;1792.00;;;;;;5036451;28;20041;-70
2023/10/24 11:12:21;;;;;;;20.13;6.90;;;666.50;1792.00;;;;;;5044393;28;20029;-70
2023/10/24 11:15:13;;;;;;;19.25;6.07;;;691.30;1817.60;;;;;;5044147;28;20842;-69
2023/10/24 11:17:43;;;;;;;23.98;8.25;;;691.30;1766.40;;;;;;5045770;28;20068;-72
2023/10/24 11:20:10;;;;;;;24.15;8.52;;;691.40;1740.80;;;;;;5037258;28;20170;-68
2023/10/24 11:22:37;;;;;;;19.42;7.05;;;691.40;1766.40;;;;;;5037994;28;20394;-70
2023/10/24 11:25:13;;;;;;;28.88;7.60;;;691.60;1740.80;;;;;;5045741;28;20017;-70
2023/10/24 11:27:41;;;;;;;29.70;8.25;;;691.60;1715.20;;;;;;5048687;28;20044;-70
2023/10/24 11:30:07;;;;;;;21.75;7.00;;;691.40;1715.20;;;;;;5023600;28;20059;-70
2023/10/24 11:32:34;;;;;;;22.23;7.57;;;691.60;1664.00;;;;;;5049882;28;20080;-70
2023/10/24 11:35:02;;;;;;;19.25;6.35;;;691.60;1664.00;;;;;;5049683;28;20028;-70
2023/10/24 11:37:28;;;;;;;26.95;7.18;;;691.70;1664.00;;;;;;5049007;28;20036;-69
2023/10/24 11:39:56;;;;;;;22.08;6.38;;;691.70;1664.00;;;;;;5049988;28;20177;-70
2023/10/24 11:42:22;;;;;;;23.02;7.28;;;691.70;1664.00;;;;;;5049405;28;20036;-70
2023/10/24 11:44:48;;;;;;;28.92;7.40;;;691.60;1664.00;;;;;;5049496;28;20021;-70
2023/10/24 11:47:15;;;;;;;25.20;6.75;;;691.70;1638.40;;;;;;5051758;28;20108;-68
2023/10/24 11:49:41;;;;;;;23.17;7.57;;;691.70;1638.40;;;;;;5052645;28;20116;-69
2023/10/24 11:52:07;;;;;;;18.10;7.60;;;691.80;1664.00;;;;;;5045738;28;20100;-69
2023/10/24 11:54:33;;;;;;;21.13;7.60;;;691.80;1689.60;;;;;;5025363;28;20025;-68
2023/10/24 11:57:00;;;;;;;29.95;8.15;;;691.80;1689.60;;;;;;5046953;28;20040;-70
2023/10/24 11:59:35;;;;;;;24.95;7.03;;;692.00;1638.40;;;;;;5050358;28;20036;-69
2023/10/24 12:02:02;;;;;;;26.92;8.60;;;692.10;1638.40;;;;;;5051761;28;20083;-70
2023/10/24 12:04:33;;;;;;;28.60;7.13;;;692.10;1664.00;;;;;;5051539;28;20041;-73
2023/10/24 12:07:09;;;;;;;18.00;7.03;;;716.80;1689.60;;;;;;5047059;28;20531;-70
2023/10/24 12:09:35;;;;;;;18.20;5.88;;;692.00;1638.40;;;;;;5044113;28;20025;-69
2023/10/24 12:12:02;;;;;;;25.65;7.90;;;692.00;1638.40;;;;;;5049276;28;20025;-70